sensor_id;sensor_type;location;lat;lon;timestamp;P1;durP1;ratioP1;P2;durP2;ratioP2
16963;SDS011;8598;50.508;10.436;2023-08-30T00:01:26;3.13;;;2.73;;
16963;SDS011;8598;50.508;10.436;2023-08-30T00:03:52;2.90;;;2.70;;
16963;SDS011;8598;50.508;10.436;2023-08-30T00:06:19;2.77;;;2.47;;
16963;SDS011;8598;50.508;10.436;2023-08-30T00:08:46;2.90;;;2.60;;
16963;SDS011;8598;50.508;10.436;2023-08-30T00:11:14;5.20;;;3.10;;
16963;SDS011;8598;50.508;10.436;2023-08-30T00:13:41;3.83;;;3.27;;
16963;SDS011;8598;50.508;10.436;2023-08-30T00:16:08;6.17;;;3.10;;
16963;SDS011;8598;50.508;10.436;2023-08-30T00:18:35;2.93;;;2.70;;
16963;SDS011;8598;50.508;10.436;2023-08-30T00:21:01;5.40;;;3.07;;
16963;SDS011;8598;50.508;10.436;2023-08-30T00:23:28;4.90;;;3.40;;
16963;SDS011;8598;50.508;10.436;2023-08-30T00:25:55;3.33;;;2.90;;
16963;SDS011;8598;50.508;10.436;2023-08-30T00:28:23;4.73;;;3.07;;
16963;SDS011;8598;50.508;10.436;2023-08-30T00:30:52;3.90;;;3.33;;
16963;SDS011;8598;50.508;10.436;2023-08-30T00:33:19;5.67;;;3.23;;
16963;SDS011;8598;50.508;10.436;2023-08-30T00:35:46;6.13;;;3.50;;
16963;SDS011;8598;50.508;10.436;2023-08-30T00:38:20;4.63;;;3.43;;
16963;SDS011;8598;50.508;10.436;2023-08-30T00:40:47;6.83;;;3.43;;
16963;SDS011;8598;50.508;10.436;2023-08-30T00:43:14;6.83;;;2.93;;
16963;SDS011;8598;50.508;10.436;2023-08-30T00:45:42;4.93;;;3.83;;
16963;SDS011;8598;50.508;10.436;2023-08-30T00:48:09;4.37;;;3.00;;
16963;SDS011;8598;50.508;10.436;2023-08-30T00:50:36;4.00;;;3.60;;
16963;SDS011;8598;50.508;10.436;2023-08-30T00:53:03;5.63;;;3.37;;
16963;SDS011;8598;50.508;10.436;2023-08-30T00:55:31;4.90;;;3.50;;
16963;SDS011;8598;50.508;10.436;2023-08-30T00:57:59;4.40;;;3.30;;
16963;SDS011;8598;50.508;10.436;2023-08-30T01:00:27;9.00;;;3.97;;
16963;SDS011;8598;50.508;10.436;2023-08-30T01:02:55;3.97;;;3.57;;
16963;SDS011;8598;50.508;10.436;2023-08-30T01:05:22;6.03;;;3.90;;
16963;SDS011;8598;50.508;10.436;2023-08-30T01:07:49;6.90;;;3.43;;
16963;SDS011;8598;50.508;10.436;2023-08-30T01:10:16;4.00;;;3.60;;
16963;SDS011;8598;50.508;10.436;2023-08-30T01:12:45;8.70;;;3.97;;
16963;SDS011;8598;50.508;10.436;2023-08-30T01:15:15;9.33;;;4.00;;
16963;SDS011;8598;50.508;10.436;2023-08-30T01:17:46;4.00;;;3.60;;
16963;SDS011;8598;50.508;10.436;2023-08-30T01:20:15;21.60;;;5.30;;
16963;SDS011;8598;50.508;10.436;2023-08-30T01:22:45;26.60;;;5.00;;
16963;SDS011;8598;50.508;10.436;2023-08-30T01:25:26;8.33;;;4.13;;
16963;SDS011;8598;50.508;10.436;2023-08-30T01:28:01;6.33;;;4.40;;
16963;SDS011;8598;50.508;10.436;2023-08-30T01:30:30;6.00;;;4.60;;
16963;SDS011;8598;50.508;10.436;2023-08-30T01:32:59;7.50;;;4.40;;
16963;SDS011;8598;50.508;10.436;2023-08-30T01:35:27;6.37;;;3.97;;
16963;SDS011;8598;50.508;10.436;2023-08-30T01:37:57;6.13;;;3.60;;
16963;SDS011;8598;50.508;10.436;2023-08-30T01:40:25;13.80;;;4.50;;
16963;SDS011;8598;50.508;10.436;2023-08-30T01:42:54;6.63;;;3.90;;
16963;SDS011;8598;50.508;10.436;2023-08-30T01:45:23;10.23;;;4.00;;
16963;SDS011;8598;50.508;10.436;2023-08-30T01:47:50;8.00;;;4.10;;
16963;SDS011;8598;50.508;10.436;2023-08-30T01:50:18;4.87;;;4.10;;
16963;SDS011;8598;50.508;10.436;2023-08-30T01:52:46;7.60;;;4.23;;
16963;SDS011;8598;50.508;10.436;2023-08-30T01:55:14;3.47;;;3.07;;
16963;SDS011;8598;50.508;10.436;2023-08-30T01:57:41;3.70;;;3.40;;
16963;SDS011;8598;50.508;10.436;2023-08-30T02:00:08;5.17;;;3.67;;
16963;SDS011;8598;50.508;10.436;2023-08-30T02:02:37;6.03;;;3.97;;
16963;SDS011;8598;50.508;10.436;2023-08-30T02:05:04;4.30;;;3.70;;
16963;SDS011;8598;50.508;10.436;2023-08-30T02:07:33;4.13;;;3.53;;
16963;SDS011;8598;50.508;10.436;2023-08-30T02:10:05;8.27;;;4.13;;
16963;SDS011;8598;50.508;10.436;2023-08-30T02:12:34;6.97;;;4.20;;
16963;SDS011;8598;50.508;10.436;2023-08-30T02:15:06;6.13;;;4.60;;
16963;SDS011;8598;50.508;10.436;2023-08-30T02:17:34;9.50;;;4.17;;
16963;SDS011;8598;50.508;10.436;2023-08-30T02:20:05;7.43;;;3.97;;
16963;SDS011;8598;50.508;10.436;2023-08-30T02:22:33;12.03;;;3.93;;
16963;SDS011;8598;50.508;10.436;2023-08-30T02:25:00;11.47;;;4.60;;
16963;SDS011;8598;50.508;10.436;2023-08-30T02:27:29;14.97;;;4.73;;
16963;SDS011;8598;50.508;10.436;2023-08-30T02:29:56;31.90;;;5.10;;
16963;SDS011;8598;50.508;10.436;2023-08-30T02:32:23;11.03;;;4.13;;
16963;SDS011;8598;50.508;10.436;2023-08-30T02:34:50;75.33;;;6.57;;
16963;SDS011;8598;50.508;10.436;2023-08-30T02:37:19;22.37;;;4.60;;
16963;SDS011;8598;50.508;10.436;2023-08-30T02:39:46;19.50;;;4.40;;
16963;SDS011;8598;50.508;10.436;2023-08-30T02:42:13;13.60;;;4.93;;
16963;SDS011;8598;50.508;10.436;2023-08-30T02:44:40;20.73;;;4.70;;
16963;SDS011;8598;50.508;10.436;2023-08-30T02:47:06;13.73;;;5.00;;
16963;SDS011;8598;50.508;10.436;2023-08-30T02:49:33;65.57;;;6.03;;
16963;SDS011;8598;50.508;10.436;2023-08-30T02:52:00;49.20;;;6.13;;
16963;SDS011;8598;50.508;10.436;2023-08-30T02:54:28;51.63;;;5.70;;
16963;SDS011;8598;50.508;10.436;2023-08-30T02:56:55;40.67;;;6.20;;
16963;SDS011;8598;50.508;10.436;2023-08-30T02:59:22;52.10;;;6.10;;
16963;SDS011;8598;50.508;10.436;2023-08-30T03:01:48;34.67;;;4.97;;
16963;SDS011;8598;50.508;10.436;2023-08-30T03:04:15;47.47;;;5.17;;
16963;SDS011;8598;50.508;10.436;2023-08-30T03:06:42;34.30;;;5.83;;
16963;SDS011;8598;50.508;10.436;2023-08-30T03:09:09;81.17;;;7.10;;
16963;SDS011;8598;50.508;10.436;2023-08-30T03:11:38;105.97;;;7.80;;
16963;SDS011;8598;50.508;10.436;2023-08-30T03:14:04;342.10;;;12.83;;
16963;SDS011;8598;50.508;10.436;2023-08-30T03:16:31;240.87;;;16.30;;
16963;SDS011;8598;50.508;10.436;2023-08-30T03:18:58;198.43;;;13.60;;
16963;SDS011;8598;50.508;10.436;2023-08-30T03:21:25;78.77;;;7.63;;
16963;SDS011;8598;50.508;10.436;2023-08-30T03:23:52;44.93;;;6.53;;
16963;SDS011;8598;50.508;10.436;2023-08-30T03:26:18;89.70;;;8.73;;
16963;SDS011;8598;50.508;10.436;2023-08-30T03:28:46;23.50;;;5.00;;
16963;SDS011;8598;50.508;10.436;2023-08-30T03:31:14;18.90;;;4.90;;
16963;SDS011;8598;50.508;10.436;2023-08-30T03:33:41;42.43;;;6.40;;
16963;SDS011;8598;50.508;10.436;2023-08-30T03:36:09;50.23;;;6.20;;
16963;SDS011;8598;50.508;10.436;2023-08-30T03:38:37;21.73;;;5.33;;
16963;SDS011;8598;50.508;10.436;2023-08-30T03:41:04;18.90;;;4.93;;
16963;SDS011;8598;50.508;10.436;2023-08-30T03:43:30;46.37;;;5.87;;
16963;SDS011;8598;50.508;10.436;2023-08-30T03:45:59;90.73;;;7.07;;
16963;SDS011;8598;50.508;10.436;2023-08-30T03:48:26;78.00;;;7.97;;
16963;SDS011;8598;50.508;10.436;2023-08-30T03:50:54;44.53;;;6.50;;
16963;SDS011;8598;50.508;10.436;2023-08-30T03:53:22;111.57;;;8.33;;
16963;SDS011;8598;50.508;10.436;2023-08-30T03:55:48;57.87;;;7.13;;
16963;SDS011;8598;50.508;10.436;2023-08-30T03:58:15;178.50;;;10.23;;
16963;SDS011;8598;50.508;10.436;2023-08-30T04:00:42;123.33;;;8.97;;
16963;SDS011;8598;50.508;10.436;2023-08-30T04:03:12;83.20;;;7.47;;
16963;SDS011;8598;50.508;10.436;2023-08-30T04:05:40;78.03;;;6.97;;
16963;SDS011;8598;50.508;10.436;2023-08-30T04:08:07;8.37;;;5.47;;
16963;SDS011;8598;50.508;10.436;2023-08-30T04:10:34;53.50;;;6.30;;
16963;SDS011;8598;50.508;10.436;2023-08-30T04:13:01;37.90;;;5.73;;
16963;SDS011;8598;50.508;10.436;2023-08-30T04:15:28;11.90;;;4.70;;
16963;SDS011;8598;50.508;10.436;2023-08-30T04:17:55;59.17;;;6.40;;
16963;SDS011;8598;50.508;10.436;2023-08-30T04:20:23;10.23;;;5.53;;
16963;SDS011;8598;50.508;10.436;2023-08-30T04:22:49;27.40;;;5.73;;
16963;SDS011;8598;50.508;10.436;2023-08-30T04:25:16;19.43;;;5.27;;
16963;SDS011;8598;50.508;10.436;2023-08-30T04:27:43;31.50;;;5.67;;
16963;SDS011;8598;50.508;10.436;2023-08-30T04:30:10;95.57;;;8.83;;
16963;SDS011;8598;50.508;10.436;2023-08-30T04:32:37;29.73;;;5.13;;
16963;SDS011;8598;50.508;10.436;2023-08-30T04:35:05;27.23;;;5.30;;
16963;SDS011;8598;50.508;10.436;2023-08-30T04:37:34;48.47;;;5.70;;
16963;SDS011;8598;50.508;10.436;2023-08-30T04:40:00;42.07;;;6.07;;
16963;SDS011;8598;50.508;10.436;2023-08-30T04:42:28;52.90;;;5.77;;
16963;SDS011;8598;50.508;10.436;2023-08-30T04:44:55;111.83;;;7.43;;
16963;SDS011;8598;50.508;10.436;2023-08-30T04:47:24;59.87;;;5.67;;
16963;SDS011;8598;50.508;10.436;2023-08-30T04:49:51;24.33;;;5.13;;
16963;SDS011;8598;50.508;10.436;2023-08-30T04:52:18;131.20;;;7.87;;
16963;SDS011;8598;50.508;10.436;2023-08-30T04:54:46;114.83;;;7.07;;
16963;SDS011;8598;50.508;10.436;2023-08-30T04:57:13;32.63;;;5.77;;
16963;SDS011;8598;50.508;10.436;2023-08-30T04:59:41;22.50;;;4.77;;
16963;SDS011;8598;50.508;10.436;2023-08-30T05:02:08;54.17;;;6.27;;
16963;SDS011;8598;50.508;10.436;2023-08-30T05:04:35;47.93;;;5.23;;
16963;SDS011;8598;50.508;10.436;2023-08-30T05:07:02;13.00;;;4.57;;
16963;SDS011;8598;50.508;10.436;2023-08-30T05:09:29;18.23;;;4.60;;
16963;SDS011;8598;50.508;10.436;2023-08-30T05:11:58;21.67;;;4.30;;
16963;SDS011;8598;50.508;10.436;2023-08-30T05:14:25;37.10;;;5.37;;
16963;SDS011;8598;50.508;10.436;2023-08-30T05:16:52;27.87;;;4.50;;
16963;SDS011;8598;50.508;10.436;2023-08-30T05:19:19;28.00;;;4.37;;
16963;SDS011;8598;50.508;10.436;2023-08-30T05:21:45;99.80;;;6.30;;
16963;SDS011;8598;50.508;10.436;2023-08-30T05:24:16;37.90;;;5.20;;
16963;SDS011;8598;50.508;10.436;2023-08-30T05:26:43;26.10;;;4.53;;
16963;SDS011;8598;50.508;10.436;2023-08-30T05:29:13;24.03;;;4.40;;
16963;SDS011;8598;50.508;10.436;2023-08-30T05:31:40;18.37;;;4.20;;
16963;SDS011;8598;50.508;10.436;2023-08-30T05:34:07;51.43;;;5.00;;
16963;SDS011;8598;50.508;10.436;2023-08-30T05:36:33;46.83;;;5.03;;
16963;SDS011;8598;50.508;10.436;2023-08-30T05:39:00;75.57;;;5.80;;
16963;SDS011;8598;50.508;10.436;2023-08-30T05:41:28;135.57;;;6.97;;
16963;SDS011;8598;50.508;10.436;2023-08-30T05:43:54;45.80;;;4.20;;
16963;SDS011;8598;50.508;10.436;2023-08-30T05:46:23;17.20;;;4.33;;
16963;SDS011;8598;50.508;10.436;2023-08-30T05:48:50;43.77;;;4.03;;
16963;SDS011;8598;50.508;10.436;2023-08-30T05:51:16;38.23;;;4.70;;
16963;SDS011;8598;50.508;10.436;2023-08-30T05:53:45;11.37;;;3.50;;
16963;SDS011;8598;50.508;10.436;2023-08-30T05:56:11;13.03;;;3.67;;
16963;SDS011;8598;50.508;10.436;2023-08-30T05:58:38;9.93;;;4.20;;
16963;SDS011;8598;50.508;10.436;2023-08-30T06:01:05;7.43;;;3.03;;
16963;SDS011;8598;50.508;10.436;2023-08-30T06:03:33;91.27;;;5.20;;
16963;SDS011;8598;50.508;10.436;2023-08-30T06:06:00;66.07;;;4.83;;
16963;SDS011;8598;50.508;10.436;2023-08-30T06:08:27;25.50;;;3.80;;
16963;SDS011;8598;50.508;10.436;2023-08-30T06:10:54;7.47;;;2.90;;
16963;SDS011;8598;50.508;10.436;2023-08-30T06:13:20;24.20;;;3.40;;
16963;SDS011;8598;50.508;10.436;2023-08-30T06:15:49;20.03;;;4.10;;
16963;SDS011;8598;50.508;10.436;2023-08-30T06:18:16;14.57;;;3.97;;
16963;SDS011;8598;50.508;10.436;2023-08-30T06:20:44;9.40;;;3.47;;
16963;SDS011;8598;50.508;10.436;2023-08-30T06:23:11;18.20;;;3.90;;
16963;SDS011;8598;50.508;10.436;2023-08-30T06:25:40;54.30;;;4.60;;
16963;SDS011;8598;50.508;10.436;2023-08-30T06:28:05;94.33;;;5.73;;
16963;SDS011;8598;50.508;10.436;2023-08-30T06:30:32;5.80;;;2.90;;
16963;SDS011;8598;50.508;10.436;2023-08-30T06:32:59;3.00;;;2.80;;
16963;SDS011;8598;50.508;10.436;2023-08-30T06:35:25;3.03;;;2.73;;
16963;SDS011;8598;50.508;10.436;2023-08-30T06:37:54;3.27;;;2.63;;
16963;SDS011;8598;50.508;10.436;2023-08-30T06:40:21;2.80;;;2.60;;
16963;SDS011;8598;50.508;10.436;2023-08-30T06:42:47;2.73;;;2.53;;
16963;SDS011;8598;50.508;10.436;2023-08-30T06:45:14;3.83;;;2.97;;
16963;SDS011;8598;50.508;10.436;2023-08-30T06:47:41;8.37;;;3.60;;
16963;SDS011;8598;50.508;10.436;2023-08-30T06:50:08;5.43;;;3.30;;
16963;SDS011;8598;50.508;10.436;2023-08-30T06:52:35;3.30;;;3.00;;
16963;SDS011;8598;50.508;10.436;2023-08-30T06:55:04;3.97;;;2.77;;
16963;SDS011;8598;50.508;10.436;2023-08-30T06:57:31;5.07;;;4.00;;
16963;SDS011;8598;50.508;10.436;2023-08-30T06:59:57;3.00;;;2.70;;
16963;SDS011;8598;50.508;10.436;2023-08-30T07:02:32;5.17;;;3.47;;
16963;SDS011;8598;50.508;10.436;2023-08-30T07:04:59;4.10;;;3.70;;
16963;SDS011;8598;50.508;10.436;2023-08-30T07:07:26;6.10;;;4.40;;
16963;SDS011;8598;50.508;10.436;2023-08-30T07:09:52;5.30;;;4.53;;
16963;SDS011;8598;50.508;10.436;2023-08-30T07:12:20;4.30;;;3.90;;
16963;SDS011;8598;50.508;10.436;2023-08-30T07:14:47;5.43;;;4.33;;
16963;SDS011;8598;50.508;10.436;2023-08-30T07:17:14;4.47;;;4.07;;
16963;SDS011;8598;50.508;10.436;2023-08-30T07:19:40;5.93;;;5.03;;
16963;SDS011;8598;50.508;10.436;2023-08-30T07:22:07;5.90;;;4.63;;
16963;SDS011;8598;50.508;10.436;2023-08-30T07:24:34;5.27;;;3.87;;
16963;SDS011;8598;50.508;10.436;2023-08-30T07:27:00;5.53;;;4.77;;
16963;SDS011;8598;50.508;10.436;2023-08-30T07:29:28;4.90;;;4.37;;
16963;SDS011;8598;50.508;10.436;2023-08-30T07:31:55;6.20;;;5.63;;
16963;SDS011;8598;50.508;10.436;2023-08-30T07:34:22;7.33;;;4.57;;
16963;SDS011;8598;50.508;10.436;2023-08-30T07:36:48;6.63;;;4.40;;
16963;SDS011;8598;50.508;10.436;2023-08-30T07:39:15;6.40;;;4.70;;
16963;SDS011;8598;50.508;10.436;2023-08-30T07:41:42;6.47;;;5.17;;
16963;SDS011;8598;50.508;10.436;2023-08-30T07:44:08;6.80;;;4.97;;
16963;SDS011;8598;50.508;10.436;2023-08-30T07:46:36;5.87;;;4.70;;
16963;SDS011;8598;50.508;10.436;2023-08-30T07:49:03;6.83;;;5.37;;
16963;SDS011;8598;50.508;10.436;2023-08-30T07:51:30;4.63;;;4.00;;
16963;SDS011;8598;50.508;10.436;2023-08-30T07:53:57;5.10;;;4.60;;
16963;SDS011;8598;50.508;10.436;2023-08-30T07:56:23;6.23;;;5.63;;
16963;SDS011;8598;50.508;10.436;2023-08-30T07:58:50;8.60;;;6.43;;
16963;SDS011;8598;50.508;10.436;2023-08-30T08:01:17;14.20;;;5.93;;
16963;SDS011;8598;50.508;10.436;2023-08-30T08:03:45;40.00;;;26.80;;
16963;SDS011;8598;50.508;10.436;2023-08-30T08:06:12;16.27;;;10.87;;
16963;SDS011;8598;50.508;10.436;2023-08-30T08:08:39;16.47;;;11.67;;
16963;SDS011;8598;50.508;10.436;2023-08-30T08:11:06;8.07;;;6.57;;
16963;SDS011;8598;50.508;10.436;2023-08-30T08:13:32;26.03;;;18.73;;
16963;SDS011;8598;50.508;10.436;2023-08-30T08:15:59;11.83;;;5.80;;
16963;SDS011;8598;50.508;10.436;2023-08-30T08:18:26;9.30;;;8.00;;
16963;SDS011;8598;50.508;10.436;2023-08-30T08:20:54;5.03;;;4.43;;
16963;SDS011;8598;50.508;10.436;2023-08-30T08:23:21;17.87;;;13.63;;
16963;SDS011;8598;50.508;10.436;2023-08-30T08:25:47;7.53;;;6.83;;
16963;SDS011;8598;50.508;10.436;2023-08-30T08:28:14;14.33;;;4.93;;
16963;SDS011;8598;50.508;10.436;2023-08-30T08:30:42;7.60;;;6.73;;
16963;SDS011;8598;50.508;10.436;2023-08-30T08:33:10;7.70;;;6.43;;
16963;SDS011;8598;50.508;10.436;2023-08-30T08:35:36;19.63;;;13.40;;
16963;SDS011;8598;50.508;10.436;2023-08-30T08:38:04;9.50;;;5.83;;
16963;SDS011;8598;50.508;10.436;2023-08-30T08:40:31;14.27;;;7.67;;
16963;SDS011;8598;50.508;10.436;2023-08-30T08:42:58;15.57;;;13.63;;
16963;SDS011;8598;50.508;10.436;2023-08-30T08:45:25;26.80;;;17.30;;
16963;SDS011;8598;50.508;10.436;2023-08-30T08:47:52;11.97;;;5.70;;
16963;SDS011;8598;50.508;10.436;2023-08-30T08:50:18;17.97;;;12.97;;
16963;SDS011;8598;50.508;10.436;2023-08-30T08:52:45;8.80;;;8.00;;
16963;SDS011;8598;50.508;10.436;2023-08-30T08:55:14;8.30;;;7.33;;
16963;SDS011;8598;50.508;10.436;2023-08-30T08:57:41;7.47;;;6.53;;
16963;SDS011;8598;50.508;10.436;2023-08-30T09:00:10;6.60;;;5.50;;
16963;SDS011;8598;50.508;10.436;2023-08-30T09:02:38;8.37;;;6.97;;
16963;SDS011;8598;50.508;10.436;2023-08-30T09:05:07;13.63;;;8.83;;
16963;SDS011;8598;50.508;10.436;2023-08-30T09:07:34;6.50;;;5.90;;
16963;SDS011;8598;50.508;10.436;2023-08-30T09:10:01;8.13;;;5.70;;
16963;SDS011;8598;50.508;10.436;2023-08-30T09:12:33;5.30;;;4.80;;
16963;SDS011;8598;50.508;10.436;2023-08-30T09:15:01;6.10;;;4.50;;
16963;SDS011;8598;50.508;10.436;2023-08-30T09:17:35;13.27;;;11.10;;
16963;SDS011;8598;50.508;10.436;2023-08-30T09:20:06;12.20;;;8.70;;
16963;SDS011;8598;50.508;10.436;2023-08-30T09:22:37;7.73;;;6.17;;
16963;SDS011;8598;50.508;10.436;2023-08-30T09:25:05;5.63;;;5.03;;
16963;SDS011;8598;50.508;10.436;2023-08-30T09:27:34;5.13;;;4.63;;
16963;SDS011;8598;50.508;10.436;2023-08-30T09:30:02;5.43;;;4.33;;
16963;SDS011;8598;50.508;10.436;2023-08-30T09:32:30;4.40;;;3.90;;
16963;SDS011;8598;50.508;10.436;2023-08-30T09:34:57;4.70;;;4.30;;
16963;SDS011;8598;50.508;10.436;2023-08-30T09:37:23;4.63;;;4.23;;
16963;SDS011;8598;50.508;10.436;2023-08-30T09:39:51;4.63;;;4.23;;
16963;SDS011;8598;50.508;10.436;2023-08-30T09:42:18;3.73;;;3.43;;
16963;SDS011;8598;50.508;10.436;2023-08-30T09:44:47;5.27;;;4.13;;
16963;SDS011;8598;50.508;10.436;2023-08-30T09:47:13;4.30;;;3.87;;
16963;SDS011;8598;50.508;10.436;2023-08-30T09:49:42;5.30;;;3.60;;
16963;SDS011;8598;50.508;10.436;2023-08-30T09:52:10;9.23;;;3.77;;
16963;SDS011;8598;50.508;10.436;2023-08-30T09:54:40;5.43;;;2.90;;
16963;SDS011;8598;50.508;10.436;2023-08-30T09:57:08;4.30;;;3.90;;
16963;SDS011;8598;50.508;10.436;2023-08-30T09:59:35;5.57;;;3.93;;
16963;SDS011;8598;50.508;10.436;2023-08-30T10:02:04;4.40;;;3.83;;
16963;SDS011;8598;50.508;10.436;2023-08-30T10:04:32;4.13;;;3.30;;
16963;SDS011;8598;50.508;10.436;2023-08-30T10:06:58;3.97;;;3.50;;
16963;SDS011;8598;50.508;10.436;2023-08-30T10:09:27;4.27;;;3.87;;
16963;SDS011;8598;50.508;10.436;2023-08-30T10:11:56;6.20;;;5.07;;
16963;SDS011;8598;50.508;10.436;2023-08-30T10:14:24;2.97;;;2.60;;
16963;SDS011;8598;50.508;10.436;2023-08-30T10:16:51;4.93;;;3.93;;
16963;SDS011;8598;50.508;10.436;2023-08-30T10:19:26;5.47;;;2.97;;
16963;SDS011;8598;50.508;10.436;2023-08-30T10:21:54;2.70;;;2.50;;
16963;SDS011;8598;50.508;10.436;2023-08-30T10:24:27;2.43;;;2.23;;
16963;SDS011;8598;50.508;10.436;2023-08-30T10:26:55;4.10;;;3.00;;
16963;SDS011;8598;50.508;10.436;2023-08-30T10:29:23;3.10;;;2.63;;
16963;SDS011;8598;50.508;10.436;2023-08-30T10:31:51;3.40;;;2.43;;
16963;SDS011;8598;50.508;10.436;2023-08-30T10:34:18;3.73;;;2.63;;
16963;SDS011;8598;50.508;10.436;2023-08-30T10:36:58;9.43;;;7.73;;
16963;SDS011;8598;50.508;10.436;2023-08-30T10:39:27;3.53;;;2.80;;
16963;SDS011;8598;50.508;10.436;2023-08-30T10:42:00;2.67;;;2.47;;
16963;SDS011;8598;50.508;10.436;2023-08-30T10:44:33;2.93;;;2.60;;
16963;SDS011;8598;50.508;10.436;2023-08-30T10:47:01;4.10;;;2.97;;
16963;SDS011;8598;50.508;10.436;2023-08-30T10:49:29;3.57;;;2.90;;
16963;SDS011;8598;50.508;10.436;2023-08-30T10:52:06;2.73;;;1.87;;
16963;SDS011;8598;50.508;10.436;2023-08-30T10:54:38;4.90;;;2.90;;
16963;SDS011;8598;50.508;10.436;2023-08-30T10:57:05;2.90;;;2.60;;
16963;SDS011;8598;50.508;10.436;2023-08-30T10:59:38;4.47;;;2.37;;
16963;SDS011;8598;50.508;10.436;2023-08-30T11:02:05;2.87;;;2.13;;
16963;SDS011;8598;50.508;10.436;2023-08-30T11:04:32;4.67;;;2.73;;
16963;SDS011;8598;50.508;10.436;2023-08-30T11:07:06;3.53;;;2.27;;
16963;SDS011;8598;50.508;10.436;2023-08-30T11:09:33;2.90;;;2.60;;
16963;SDS011;8598;50.508;10.436;2023-08-30T11:12:04;2.90;;;1.77;;
16963;SDS011;8598;50.508;10.436;2023-08-30T11:14:31;4.30;;;2.70;;
16963;SDS011;8598;50.508;10.436;2023-08-30T11:16:58;3.60;;;1.77;;
16963;SDS011;8598;50.508;10.436;2023-08-30T11:19:29;1.90;;;1.70;;
16963;SDS011;8598;50.508;10.436;2023-08-30T11:21:56;2.90;;;2.33;;
16963;SDS011;8598;50.508;10.436;2023-08-30T11:24:24;3.50;;;2.73;;
16963;SDS011;8598;50.508;10.436;2023-08-30T11:26:54;2.83;;;2.50;;
16963;SDS011;8598;50.508;10.436;2023-08-30T11:29:20;6.80;;;2.67;;
16963;SDS011;8598;50.508;10.436;2023-08-30T11:31:48;4.47;;;2.20;;
16963;SDS011;8598;50.508;10.436;2023-08-30T11:34:15;3.17;;;2.80;;
16963;SDS011;8598;50.508;10.436;2023-08-30T11:36:47;3.13;;;2.83;;
16963;SDS011;8598;50.508;10.436;2023-08-30T11:39:15;7.63;;;4.43;;
16963;SDS011;8598;50.508;10.436;2023-08-30T11:41:44;7.50;;;4.07;;
16963;SDS011;8598;50.508;10.436;2023-08-30T11:44:10;5.93;;;3.50;;
16963;SDS011;8598;50.508;10.436;2023-08-30T11:46:37;4.37;;;3.50;;
16963;SDS011;8598;50.508;10.436;2023-08-30T11:49:04;4.57;;;3.33;;
16963;SDS011;8598;50.508;10.436;2023-08-30T11:51:31;6.43;;;3.77;;
16963;SDS011;8598;50.508;10.436;2023-08-30T11:53:58;5.10;;;3.83;;
16963;SDS011;8598;50.508;10.436;2023-08-30T11:56:27;5.10;;;3.87;;
16963;SDS011;8598;50.508;10.436;2023-08-30T11:58:56;4.80;;;3.93;;
16963;SDS011;8598;50.508;10.436;2023-08-30T12:01:22;6.90;;;4.17;;
16963;SDS011;8598;50.508;10.436;2023-08-30T12:03:49;6.53;;;4.33;;
16963;SDS011;8598;50.508;10.436;2023-08-30T12:06:16;5.80;;;3.90;;
16963;SDS011;8598;50.508;10.436;2023-08-30T12:08:43;15.33;;;9.87;;
16963;SDS011;8598;50.508;10.436;2023-08-30T12:11:17;6.37;;;4.13;;
16963;SDS011;8598;50.508;10.436;2023-08-30T12:13:44;5.60;;;4.67;;
16963;SDS011;8598;50.508;10.436;2023-08-30T12:16:16;5.77;;;4.57;;
16963;SDS011;8598;50.508;10.436;2023-08-30T12:18:43;8.60;;;5.83;;
16963;SDS011;8598;50.508;10.436;2023-08-30T12:21:10;10.10;;;7.37;;
16963;SDS011;8598;50.508;10.436;2023-08-30T12:23:40;10.00;;;6.90;;
16963;SDS011;8598;50.508;10.436;2023-08-30T12:26:07;30.90;;;18.40;;
16963;SDS011;8598;50.508;10.436;2023-08-30T12:28:35;6.93;;;5.50;;
16963;SDS011;8598;50.508;10.436;2023-08-30T12:31:02;14.33;;;9.33;;
16963;SDS011;8598;50.508;10.436;2023-08-30T12:33:30;6.60;;;5.37;;
16963;SDS011;8598;50.508;10.436;2023-08-30T12:35:57;11.10;;;6.53;;
16963;SDS011;8598;50.508;10.436;2023-08-30T12:38:24;13.90;;;8.43;;
16963;SDS011;8598;50.508;10.436;2023-08-30T12:40:51;7.23;;;4.70;;
16963;SDS011;8598;50.508;10.436;2023-08-30T12:43:19;8.13;;;5.27;;
16963;SDS011;8598;50.508;10.436;2023-08-30T12:45:47;22.63;;;10.00;;
16963;SDS011;8598;50.508;10.436;2023-08-30T12:48:15;5.17;;;3.90;;
16963;SDS011;8598;50.508;10.436;2023-08-30T12:50:44;6.57;;;3.57;;
16963;SDS011;8598;50.508;10.436;2023-08-30T12:53:12;15.10;;;6.90;;
16963;SDS011;8598;50.508;10.436;2023-08-30T12:55:40;6.90;;;3.47;;
16963;SDS011;8598;50.508;10.436;2023-08-30T12:58:06;6.23;;;4.63;;
16963;SDS011;8598;50.508;10.436;2023-08-30T13:00:34;4.90;;;4.27;;
16963;SDS011;8598;50.508;10.436;2023-08-30T13:03:01;21.90;;;5.33;;
16963;SDS011;8598;50.508;10.436;2023-08-30T13:05:29;7.63;;;4.60;;
16963;SDS011;8598;50.508;10.436;2023-08-30T13:07:58;4.87;;;3.33;;
16963;SDS011;8598;50.508;10.436;2023-08-30T13:10:25;5.50;;;4.07;;
16963;SDS011;8598;50.508;10.436;2023-08-30T13:12:52;7.87;;;4.50;;
16963;SDS011;8598;50.508;10.436;2023-08-30T13:15:19;5.50;;;3.60;;
16963;SDS011;8598;50.508;10.436;2023-08-30T13:17:45;5.57;;;4.33;;
16963;SDS011;8598;50.508;10.436;2023-08-30T13:20:12;5.40;;;3.40;;
16963;SDS011;8598;50.508;10.436;2023-08-30T13:22:39;6.23;;;4.43;;
16963;SDS011;8598;50.508;10.436;2023-08-30T13:25:07;9.70;;;5.07;;
16963;SDS011;8598;50.508;10.436;2023-08-30T13:27:34;5.27;;;4.03;;
16963;SDS011;8598;50.508;10.436;2023-08-30T13:30:01;6.60;;;4.60;;
16963;SDS011;8598;50.508;10.436;2023-08-30T13:32:28;7.23;;;4.80;;
16963;SDS011;8598;50.508;10.436;2023-08-30T13:34:55;9.90;;;5.67;;
16963;SDS011;8598;50.508;10.436;2023-08-30T13:37:21;6.53;;;4.27;;
16963;SDS011;8598;50.508;10.436;2023-08-30T13:39:49;6.10;;;3.93;;
16963;SDS011;8598;50.508;10.436;2023-08-30T13:42:17;7.97;;;5.53;;
16963;SDS011;8598;50.508;10.436;2023-08-30T13:44:44;8.73;;;5.07;;
16963;SDS011;8598;50.508;10.436;2023-08-30T13:47:10;6.13;;;4.17;;
16963;SDS011;8598;50.508;10.436;2023-08-30T13:49:37;3.77;;;3.07;;
16963;SDS011;8598;50.508;10.436;2023-08-30T13:52:04;7.27;;;3.67;;
16963;SDS011;8598;50.508;10.436;2023-08-30T13:54:32;6.43;;;4.90;;
16963;SDS011;8598;50.508;10.436;2023-08-30T13:56:59;5.43;;;3.77;;
16963;SDS011;8598;50.508;10.436;2023-08-30T13:59:27;9.97;;;4.07;;
16963;SDS011;8598;50.508;10.436;2023-08-30T14:01:55;4.70;;;3.50;;
16963;SDS011;8598;50.508;10.436;2023-08-30T14:04:23;4.47;;;3.70;;
16963;SDS011;8598;50.508;10.436;2023-08-30T14:06:50;5.67;;;4.03;;
16963;SDS011;8598;50.508;10.436;2023-08-30T14:09:17;6.67;;;3.90;;
16963;SDS011;8598;50.508;10.436;2023-08-30T14:11:44;5.07;;;3.47;;
16963;SDS011;8598;50.508;10.436;2023-08-30T14:14:10;3.73;;;3.17;;
16963;SDS011;8598;50.508;10.436;2023-08-30T14:16:38;6.90;;;3.60;;
16963;SDS011;8598;50.508;10.436;2023-08-30T14:19:05;6.27;;;3.90;;
16963;SDS011;8598;50.508;10.436;2023-08-30T14:21:32;4.57;;;3.37;;
16963;SDS011;8598;50.508;10.436;2023-08-30T14:23:59;4.53;;;3.73;;
16963;SDS011;8598;50.508;10.436;2023-08-30T14:26:26;7.43;;;4.00;;
16963;SDS011;8598;50.508;10.436;2023-08-30T14:28:54;4.27;;;3.87;;
16963;SDS011;8598;50.508;10.436;2023-08-30T14:31:20;3.90;;;3.47;;
16963;SDS011;8598;50.508;10.436;2023-08-30T14:33:48;4.20;;;3.30;;
16963;SDS011;8598;50.508;10.436;2023-08-30T14:36:15;3.77;;;3.27;;
16963;SDS011;8598;50.508;10.436;2023-08-30T14:38:42;6.10;;;3.33;;
16963;SDS011;8598;50.508;10.436;2023-08-30T14:41:08;4.97;;;3.40;;
16963;SDS011;8598;50.508;10.436;2023-08-30T14:43:35;3.60;;;2.73;;
16963;SDS011;8598;50.508;10.436;2023-08-30T14:46:02;4.93;;;2.60;;